createdAt,value
2018-05-09T00:00:15.153Z,18.34
2018-05-09T00:02:43.431Z,18.32
2018-05-09T00:05:11.699Z,18.32
2018-05-09T00:07:40.002Z,18.35
2018-05-09T00:10:08.286Z,18.14
2018-05-09T00:12:36.590Z,18.20
2018-05-09T00:15:04.887Z,18.21
2018-05-09T00:17:33.172Z,18.15
2018-05-09T00:20:01.451Z,18.25
2018-05-09T00:22:29.739Z,18.18
2018-05-09T00:24:57.989Z,18.13
2018-05-09T00:27:26.283Z,18.13
2018-05-09T00:29:54.583Z,18.02
2018-05-09T00:32:22.900Z,17.86
2018-05-09T00:34:52.006Z,17.74
2018-05-09T00:37:20.346Z,17.71
2018-05-09T00:39:48.639Z,17.74
2018-05-09T00:42:16.877Z,17.84
2018-05-09T00:44:45.170Z,17.76
2018-05-09T00:47:13.453Z,17.56
2018-05-09T00:49:41.786Z,17.54
2018-05-09T00:52:10.070Z,17.51
2018-05-09T00:54:38.367Z,17.59
2018-05-09T00:57:06.612Z,17.52
2018-05-09T00:59:34.947Z,17.33
2018-05-09T01:02:03.205Z,17.33
2018-05-09T01:04:31.490Z,17.45
2018-05-09T01:06:59.769Z,17.39
2018-05-09T01:09:28.035Z,17.19
2018-05-09T01:11:56.313Z,17.16
2018-05-09T01:14:24.914Z,17.21
2018-05-09T01:16:53.187Z,17.31
2018-05-09T01:19:21.461Z,17.15
2018-05-09T01:21:49.773Z,17.00
2018-05-09T01:24:18.103Z,16.97
2018-05-09T01:26:46.357Z,17.05
2018-05-09T01:29:14.668Z,16.96
2018-05-09T01:31:42.907Z,16.99
2018-05-09T01:34:11.178Z,17.11
2018-05-09T01:36:39.434Z,16.92
2018-05-09T01:39:07.736Z,16.88
2018-05-09T01:41:36.002Z,16.75
2018-05-09T01:44:04.365Z,16.75
2018-05-09T01:46:32.684Z,16.58
2018-05-09T01:49:01.003Z,16.56
2018-05-09T01:51:29.294Z,16.50
2018-05-09T01:53:57.577Z,16.68
2018-05-09T01:56:26.478Z,16.52
2018-05-09T01:58:54.758Z,16.53
2018-05-09T02:01:23.114Z,16.36
2018-05-09T02:03:51.366Z,16.43
2018-05-09T02:06:19.663Z,16.52
2018-05-09T02:08:47.963Z,16.57
2018-05-09T02:11:16.317Z,16.44
2018-05-09T02:13:44.583Z,16.38
2018-05-09T02:16:12.858Z,16.45
2018-05-09T02:18:41.202Z,16.31
2018-05-09T02:21:09.488Z,16.21
2018-05-09T02:23:37.741Z,16.15
2018-05-09T02:26:06.059Z,16.02
2018-05-09T02:28:34.342Z,16.13
2018-05-09T02:31:02.717Z,16.37
2018-05-09T02:33:30.910Z,16.27
2018-05-09T02:35:59.168Z,16.13
2018-05-09T02:38:27.495Z,16.24
2018-05-09T02:40:55.747Z,16.27
2018-05-09T02:43:24.029Z,16.34
2018-05-09T02:45:52.380Z,16.18
2018-05-09T02:48:20.657Z,16.21
2018-05-09T02:50:48.968Z,16.08
2018-05-09T02:53:17.218Z,16.06
2018-05-09T02:55:45.499Z,15.93
2018-05-09T02:58:13.782Z,15.95
2018-05-09T03:00:42.048Z,16.03
2018-05-09T03:03:10.483Z,15.88
2018-05-09T03:05:38.723Z,15.88
2018-05-09T03:08:07.012Z,15.82
2018-05-09T03:10:35.261Z,15.77
2018-05-09T03:13:04.598Z,15.87
2018-05-09T03:15:32.862Z,15.76
2018-05-09T03:18:01.143Z,15.62
2018-05-09T03:20:29.532Z,15.62
2018-05-09T03:22:57.757Z,15.48
2018-05-09T03:25:26.346Z,15.53
2018-05-09T03:27:54.576Z,15.59
2018-05-09T03:30:22.888Z,15.55
2018-05-09T03:32:51.559Z,15.61
2018-05-09T03:35:19.842Z,15.61
2018-05-09T03:37:48.097Z,15.59
2018-05-09T03:40:16.416Z,15.62
2018-05-09T03:42:44.667Z,15.54
2018-05-09T03:45:12.973Z,15.44
2018-05-09T03:47:41.270Z,15.46
2018-05-09T03:50:09.551Z,15.45
2018-05-09T03:52:37.803Z,15.30
2018-05-09T03:55:06.090Z,15.15
2018-05-09T03:57:34.358Z,15.18
2018-05-09T04:00:02.659Z,15.14
2018-05-09T04:02:43.895Z,15.33
2018-05-09T04:05:23.753Z,15.21
2018-05-09T04:08:03.702Z,15.08
2018-05-09T04:10:32.004Z,15.12
2018-05-09T04:13:00.268Z,15.14
2018-05-09T04:15:28.542Z,15.25
2018-05-09T04:17:56.831Z,15.09
2018-05-09T04:20:25.096Z,15.08
2018-05-09T04:22:53.413Z,15.08
2018-05-09T04:25:21.724Z,15.15
2018-05-09T04:27:50.047Z,15.17
2018-05-09T04:30:18.308Z,15.15
2018-05-09T04:32:46.586Z,15.15
2018-05-09T04:35:14.860Z,15.16
2018-05-09T04:37:43.150Z,15.23
2018-05-09T04:40:11.470Z,15.26
2018-05-09T04:42:39.858Z,15.23
2018-05-09T04:45:08.152Z,15.41
2018-05-09T04:47:36.480Z,15.32
2018-05-09T04:50:04.871Z,15.35
2018-05-09T04:52:33.178Z,15.34
2018-05-09T04:55:01.487Z,15.39
2018-05-09T04:57:29.771Z,15.54
2018-05-09T04:59:58.053Z,15.49
2018-05-09T05:02:26.338Z,15.54
2018-05-09T05:04:54.688Z,15.62
2018-05-09T05:07:22.933Z,15.65
2018-05-09T05:09:51.221Z,15.73
2018-05-09T05:12:19.522Z,15.84
2018-05-09T05:14:47.782Z,15.91
2018-05-09T05:17:16.093Z,16.02
2018-05-09T05:19:44.453Z,16.09
2018-05-09T05:22:12.715Z,16.14
2018-05-09T05:24:41.038Z,16.31
2018-05-09T05:27:09.643Z,16.44
2018-05-09T05:29:37.815Z,16.34
2018-05-09T05:32:06.151Z,16.30
2018-05-09T05:34:34.409Z,15.88
2018-05-09T05:37:03.434Z,16.38
2018-05-09T05:39:31.805Z,16.45
2018-05-09T05:42:00.109Z,16.51
2018-05-09T05:44:28.374Z,16.63
2018-05-09T05:46:56.735Z,16.72
2018-05-09T05:49:24.988Z,16.71
2018-05-09T05:51:53.336Z,16.69
2018-05-09T05:54:21.622Z,16.82
2018-05-09T05:56:50.016Z,16.90
2018-05-09T05:59:18.279Z,17.16
2018-05-09T06:01:46.651Z,17.11
2018-05-09T06:04:14.925Z,17.22
2018-05-09T06:06:43.858Z,17.48
2018-05-09T06:09:12.147Z,17.59
2018-05-09T06:11:40.496Z,17.64
2018-05-09T06:14:08.786Z,17.69
2018-05-09T06:16:37.077Z,17.96
2018-05-09T06:19:05.655Z,18.03
2018-05-09T06:21:33.960Z,18.03
2018-05-09T06:24:02.405Z,18.05
2018-05-09T06:26:30.620Z,18.17
2018-05-09T06:28:58.957Z,18.25
2018-05-09T06:31:29.199Z,18.52
2018-05-09T06:34:01.105Z,18.52
2018-05-09T06:36:30.507Z,18.59
2018-05-09T06:38:58.797Z,18.59
2018-05-09T06:41:27.994Z,18.78
2018-05-09T06:43:56.304Z,18.95
2018-05-09T06:46:24.618Z,19.16
2018-05-09T06:48:54.061Z,19.32
2018-05-09T06:51:22.920Z,19.45
2018-05-09T06:53:51.202Z,19.32
2018-05-09T06:56:19.590Z,19.41
2018-05-09T06:58:47.913Z,19.44
2018-05-09T07:01:16.203Z,19.56
2018-05-09T07:03:44.950Z,19.73
2018-05-09T07:06:13.454Z,19.89
2018-05-09T07:08:41.675Z,20.07
2018-05-09T07:11:09.977Z,20.24
2018-05-09T07:13:39.153Z,20.39
2018-05-09T07:16:07.466Z,20.31
2018-05-09T07:18:35.736Z,20.69
2018-05-09T07:21:05.424Z,20.80
2018-05-09T07:23:33.870Z,21.00
2018-05-09T07:26:02.863Z,21.11
2018-05-09T07:28:31.149Z,21.25
2018-05-09T07:30:59.729Z,21.45
2018-05-09T07:33:28.023Z,21.54
2018-05-09T07:35:57.019Z,21.55
2018-05-09T07:38:25.290Z,21.63
2018-05-09T07:40:53.577Z,21.75
2018-05-09T07:43:23.591Z,21.85
2018-05-09T07:45:53.388Z,22.00
2018-05-09T07:48:22.760Z,22.17
2018-05-09T07:50:51.075Z,22.32
2018-05-09T07:53:19.341Z,22.25
2018-05-09T07:55:47.686Z,22.15
2018-05-09T07:58:15.917Z,22.16
2018-05-09T08:00:44.926Z,22.36
2018-05-09T08:03:13.221Z,22.39
2018-05-09T08:05:41.485Z,22.61
2018-05-09T08:08:09.749Z,22.79
2018-05-09T08:10:38.126Z,22.90
2018-05-09T08:13:07.210Z,22.94
2018-05-09T08:15:35.527Z,22.96
2018-05-09T08:18:03.858Z,23.08
2018-05-09T08:20:32.138Z,23.30
2018-05-09T08:23:00.421Z,23.40
2018-05-09T08:25:28.694Z,23.57
2018-05-09T08:27:56.970Z,23.70
2018-05-09T08:30:25.295Z,23.82
2018-05-09T08:32:53.743Z,23.96
2018-05-09T08:35:22.014Z,24.07
2018-05-09T08:37:50.364Z,24.18
2018-05-09T08:40:18.685Z,24.28
2018-05-09T08:42:47.923Z,24.37
2018-05-09T08:45:16.213Z,24.53
2018-05-09T08:47:47.537Z,24.48
2018-05-09T08:50:15.840Z,24.41
2018-05-09T08:52:44.136Z,24.51
2018-05-09T08:55:12.448Z,24.65
2018-05-09T08:57:40.764Z,24.76
2018-05-09T09:00:09.023Z,24.70
2018-05-09T09:02:37.325Z,24.99
2018-05-09T09:05:05.630Z,24.98
2018-05-09T09:07:33.922Z,25.10
2018-05-09T09:10:03.836Z,25.16
2018-05-09T09:12:32.117Z,25.28
2018-05-09T09:15:00.495Z,25.17
2018-05-09T09:17:28.889Z,24.98
2018-05-09T09:19:58.320Z,25.10
2018-05-09T09:22:26.624Z,25.28
2018-05-09T09:24:56.464Z,25.43
2018-05-09T09:27:25.510Z,25.57
2018-05-09T09:30:10.152Z,25.59
2018-05-09T09:32:39.091Z,25.75
2018-05-09T09:35:08.216Z,25.91
2018-05-09T09:37:36.471Z,25.90
2018-05-09T09:40:04.777Z,26.03
2018-05-09T09:42:38.613Z,26.08
2018-05-09T09:45:06.948Z,26.04
2018-05-09T09:47:35.218Z,26.04
2018-05-09T09:50:03.513Z,26.15
2018-05-09T09:52:31.850Z,26.35
2018-05-09T09:55:00.784Z,26.42
2018-05-09T09:57:29.143Z,26.51
2018-05-09T09:59:57.522Z,26.55
2018-05-09T10:02:26.070Z,26.52
2018-05-09T10:04:54.347Z,26.15
2018-05-09T10:07:22.809Z,25.83
2018-05-09T10:09:51.445Z,25.51
2018-05-09T10:12:19.744Z,25.63
2018-05-09T10:14:48.159Z,25.93
2018-05-09T10:17:17.755Z,26.29
2018-05-09T10:19:46.036Z,26.50
2018-05-09T10:22:14.337Z,26.76
2018-05-09T10:24:42.690Z,27.01
2018-05-09T10:27:11.109Z,27.34
2018-05-09T10:29:39.413Z,27.45
2018-05-09T10:32:07.694Z,27.44
2018-05-09T10:34:36.221Z,27.28
2018-05-09T10:37:05.314Z,27.50
2018-05-09T10:39:33.712Z,27.02
2018-05-09T10:42:02.066Z,27.09
2018-05-09T10:44:31.851Z,26.47
2018-05-09T10:47:00.250Z,26.54
2018-05-09T10:49:28.524Z,26.46
2018-05-09T10:51:56.825Z,26.52
2018-05-09T10:54:25.106Z,26.56
2018-05-09T10:56:53.369Z,26.80
2018-05-09T10:59:21.750Z,26.81
2018-05-09T11:01:50.050Z,26.62
2018-05-09T11:04:18.366Z,26.32
2018-05-09T11:06:46.662Z,26.41
2018-05-09T11:09:14.920Z,26.37
2018-05-09T11:11:43.193Z,26.09
2018-05-09T11:14:11.993Z,25.93
2018-05-09T11:16:40.604Z,26.41
2018-05-09T11:19:09.822Z,26.91
2018-05-09T11:21:38.191Z,27.13
2018-05-09T11:24:06.543Z,27.13
2018-05-09T11:26:34.820Z,26.96
2018-05-09T11:29:03.108Z,26.63
2018-05-09T11:31:32.301Z,26.56
2018-05-09T11:34:00.606Z,26.63
2018-05-09T11:36:28.982Z,26.93
2018-05-09T11:38:57.269Z,27.03
2018-05-09T11:41:25.563Z,27.22
2018-05-09T11:43:53.833Z,27.47
2018-05-09T11:46:22.555Z,27.61
2018-05-09T11:48:50.863Z,27.78
2018-05-09T11:51:19.174Z,27.80
2018-05-09T11:53:48.349Z,27.46
2018-05-09T11:56:16.649Z,27.87
2018-05-09T11:58:44.978Z,27.99
2018-05-09T12:01:13.353Z,27.78
2018-05-09T12:03:41.641Z,27.49
2018-05-09T12:06:11.885Z,27.56
2018-05-09T12:08:40.155Z,27.62
2018-05-09T12:11:08.458Z,27.89
2018-05-09T12:13:36.780Z,27.75
2018-05-09T12:16:05.149Z,28.23
2018-05-09T12:18:33.525Z,28.46
2018-05-09T12:21:02.723Z,28.36
2018-05-09T12:23:31.018Z,28.58
2018-05-09T12:25:59.324Z,28.92
2018-05-09T12:28:27.621Z,29.09
2018-05-09T12:30:55.898Z,28.30
2018-05-09T12:33:24.259Z,28.41
2018-05-09T12:35:54.055Z,28.86
2018-05-09T12:38:22.352Z,28.80
2018-05-09T12:40:50.676Z,28.64
2018-05-09T12:43:19.022Z,28.48
2018-05-09T12:45:47.307Z,28.51
2018-05-09T12:48:15.627Z,28.85
2018-05-09T12:50:43.890Z,28.40
2018-05-09T12:53:12.369Z,28.77
2018-05-09T12:55:41.180Z,29.29
2018-05-09T12:58:09.719Z,29.67
2018-05-09T13:00:38.004Z,29.99
2018-05-09T13:03:06.303Z,30.41
2018-05-09T13:05:34.568Z,30.48
2018-05-09T13:08:02.947Z,30.78
2018-05-09T13:10:31.209Z,30.93
2018-05-09T13:12:59.997Z,30.74
2018-05-09T13:15:28.296Z,30.40
2018-05-09T13:17:57.420Z,30.37
2018-05-09T13:20:26.109Z,30.77
2018-05-09T13:22:54.372Z,30.81
2018-05-09T13:25:22.711Z,31.02
2018-05-09T13:27:51.015Z,30.15
2018-05-09T13:30:19.292Z,30.65
2018-05-09T13:32:47.599Z,30.98
2018-05-09T13:35:15.915Z,30.57
2018-05-09T13:37:45.183Z,31.09
2018-05-09T13:40:13.493Z,31.68
2018-05-09T13:42:41.745Z,31.72
2018-05-09T13:45:10.126Z,31.33
2018-05-09T13:47:38.428Z,30.99
2018-05-09T13:50:06.782Z,31.14
2018-05-09T13:52:35.066Z,30.62
2018-05-09T13:55:03.425Z,30.43
2018-05-09T13:57:31.747Z,30.70
2018-05-09T14:00:00.112Z,31.24
2018-05-09T14:02:28.406Z,31.43
2018-05-09T14:04:56.749Z,31.30
2018-05-09T14:07:25.079Z,30.83
2018-05-09T14:09:53.412Z,30.37
2018-05-09T14:12:21.638Z,30.14
2018-05-09T14:14:50.092Z,30.01
2018-05-09T14:17:19.079Z,29.59
2018-05-09T14:19:47.362Z,29.80
2018-05-09T14:22:15.716Z,30.03
2018-05-09T14:24:43.971Z,30.63
2018-05-09T14:27:16.235Z,31.44
2018-05-09T14:29:44.543Z,31.94
2018-05-09T14:32:13.868Z,32.13
2018-05-09T14:34:42.122Z,32.30
2018-05-09T14:37:10.430Z,31.89
2018-05-09T14:39:38.723Z,31.66
2018-05-09T14:42:07.065Z,31.60
2018-05-09T14:44:35.324Z,31.06
2018-05-09T14:47:03.700Z,30.66
2018-05-09T14:49:31.954Z,30.48
2018-05-09T14:52:00.266Z,30.11
2018-05-09T14:54:28.638Z,29.79
2018-05-09T14:56:57.703Z,29.31
2018-05-09T14:59:26.069Z,29.62
2018-05-09T15:01:54.347Z,29.98
2018-05-09T15:04:22.663Z,30.67
2018-05-09T15:06:50.937Z,31.54
2018-05-09T15:09:20.821Z,32.29
2018-05-09T15:11:49.207Z,32.76
2018-05-09T15:14:17.578Z,32.83
2018-05-09T15:16:46.134Z,32.76
2018-05-09T15:19:15.048Z,32.33
2018-05-09T15:21:43.331Z,32.09
2018-05-09T15:24:11.633Z,32.07
2018-05-09T15:26:39.956Z,32.75
2018-05-09T15:29:08.305Z,33.01
2018-05-09T15:31:36.572Z,33.47
2018-05-09T15:34:04.911Z,33.76
2018-05-09T15:36:33.193Z,34.29
2018-05-09T15:39:01.594Z,34.39
2018-05-09T15:41:29.760Z,34.03
2018-05-09T15:43:58.079Z,34.29
2018-05-09T15:46:26.411Z,34.38
2018-05-09T15:48:54.823Z,33.07
2018-05-09T15:51:23.098Z,31.90
2018-05-09T15:53:51.553Z,32.02
2018-05-09T15:56:19.957Z,31.43
2018-05-09T15:58:49.135Z,31.35
2018-05-09T16:01:17.434Z,31.88
2018-05-09T16:03:45.694Z,32.27
2018-05-09T16:06:14.068Z,32.19
2018-05-09T16:08:42.379Z,32.20
2018-05-09T16:11:11.202Z,32.56
2018-05-09T16:13:39.505Z,31.52
2018-05-09T16:16:07.786Z,31.16
2018-05-09T16:18:36.048Z,31.26
2018-05-09T16:21:04.455Z,30.87
2018-05-09T16:23:33.836Z,31.14
2018-05-09T16:26:02.127Z,31.64
2018-05-09T16:28:30.417Z,31.79
2018-05-09T16:30:58.745Z,32.36
2018-05-09T16:33:27.108Z,32.48
2018-05-09T16:35:55.394Z,32.33
2018-05-09T16:38:23.655Z,32.52
2018-05-09T16:40:51.999Z,32.58
2018-05-09T16:43:20.269Z,32.83
2018-05-09T16:45:48.633Z,33.19
2018-05-09T16:48:16.921Z,33.26
2018-05-09T16:50:45.228Z,33.16
2018-05-09T16:53:13.494Z,33.12
2018-05-09T16:55:41.847Z,33.05
2018-05-09T16:58:10.123Z,32.74
2018-05-09T17:00:38.474Z,32.84
2018-05-09T17:03:07.098Z,32.37
2018-05-09T17:05:35.471Z,32.07
2018-05-09T17:08:03.677Z,31.71
2018-05-09T17:10:31.986Z,31.71
2018-05-09T17:13:00.415Z,31.08
2018-05-09T17:15:28.578Z,31.04
2018-05-09T17:17:56.866Z,30.81
2018-05-09T17:20:25.142Z,30.29
2018-05-09T17:22:54.437Z,30.27
2018-05-09T17:25:22.701Z,30.17
2018-05-09T17:27:50.989Z,30.19
2018-05-09T17:30:19.292Z,30.14
2018-05-09T17:32:47.585Z,29.96
2018-05-09T17:35:15.857Z,29.83
2018-05-09T17:37:44.177Z,29.90
2018-05-09T17:40:12.464Z,29.44
2018-05-09T17:42:40.824Z,29.36
2018-05-09T17:45:09.003Z,29.30
2018-05-09T17:47:37.282Z,29.24
2018-05-09T17:50:05.911Z,29.39
2018-05-09T17:52:34.194Z,29.35
2018-05-09T17:55:02.479Z,29.39
2018-05-09T17:57:30.803Z,29.20
2018-05-09T17:59:59.104Z,29.00
2018-05-09T18:02:27.378Z,29.05
2018-05-09T18:04:55.656Z,29.08
2018-05-09T18:07:24.046Z,29.10
2018-05-09T18:09:53.138Z,29.13
2018-05-09T18:12:21.395Z,29.14
2018-05-09T18:14:49.721Z,29.12
2018-05-09T18:17:17.964Z,29.02
2018-05-09T18:19:46.398Z,28.96
2018-05-09T18:22:14.672Z,28.96
2018-05-09T18:24:42.955Z,29.04
2018-05-09T18:27:11.232Z,28.77
2018-05-09T18:29:39.531Z,28.43
2018-05-09T18:32:08.197Z,28.36
2018-05-09T18:34:36.512Z,28.23
2018-05-09T18:37:04.889Z,28.11
2018-05-09T18:39:33.146Z,27.99
2018-05-09T18:42:01.423Z,27.92
2018-05-09T18:44:30.091Z,27.75
2018-05-09T18:46:58.375Z,27.80
2018-05-09T18:49:26.685Z,27.86
2018-05-09T18:51:54.990Z,27.73
2018-05-09T18:54:23.263Z,27.54
2018-05-09T18:56:51.559Z,27.25
2018-05-09T18:59:19.855Z,26.91
2018-05-09T19:01:48.141Z,26.88
2018-05-09T19:04:16.707Z,26.70
2018-05-09T19:06:44.974Z,26.62
2018-05-09T19:09:13.236Z,26.58
2018-05-09T19:11:41.538Z,26.41
2018-05-09T19:14:09.810Z,26.24
2018-05-09T19:16:38.150Z,26.19
2018-05-09T19:19:06.544Z,26.08
2018-05-09T19:21:34.913Z,25.27
2018-05-09T19:24:03.255Z,25.84
2018-05-09T19:26:31.729Z,25.71
2018-05-09T19:29:00.014Z,25.45
2018-05-09T19:31:28.287Z,25.31
2018-05-09T19:33:56.594Z,25.25
2018-05-09T19:36:24.919Z,25.14
2018-05-09T19:38:53.248Z,25.03
2018-05-09T19:41:21.510Z,25.60
2018-05-09T19:43:49.822Z,26.00
2018-05-09T19:46:18.123Z,26.27
2018-05-09T19:48:46.416Z,26.50
2018-05-09T19:51:14.666Z,26.56
2018-05-09T19:53:43.024Z,26.56
2018-05-09T19:56:11.268Z,26.28
2018-05-09T19:58:39.562Z,26.28
2018-05-09T20:01:07.866Z,26.30
2018-05-09T20:03:36.137Z,26.30
2018-05-09T20:06:05.121Z,26.17
2018-05-09T20:08:34.029Z,26.06
2018-05-09T20:11:02.336Z,26.04
2018-05-09T20:13:30.733Z,25.88
2018-05-09T20:15:59.070Z,25.69
2018-05-09T20:18:27.338Z,25.44
2018-05-09T20:20:55.631Z,25.68
2018-05-09T20:23:23.923Z,25.94
2018-05-09T20:25:52.231Z,26.07
2018-05-09T20:28:20.575Z,26.09
2018-05-09T20:30:54.833Z,25.99
2018-05-09T20:33:23.758Z,25.99
2018-05-09T20:35:52.065Z,25.94
2018-05-09T20:38:20.378Z,25.89
2018-05-09T20:40:48.685Z,25.86
2018-05-09T20:43:17.031Z,25.85
2018-05-09T20:45:45.686Z,25.88
2018-05-09T20:48:14.653Z,25.77
2018-05-09T20:50:43.562Z,25.62
2018-05-09T20:53:11.852Z,25.57
2018-05-09T20:55:40.203Z,25.44
2018-05-09T20:58:08.575Z,25.56
2018-05-09T21:00:36.853Z,25.61
2018-05-09T21:03:05.138Z,25.54
2018-05-09T21:05:33.608Z,25.53
2018-05-09T21:08:01.979Z,25.50
2018-05-09T21:10:30.466Z,25.48
2018-05-09T21:13:00.275Z,25.45
2018-05-09T21:15:28.616Z,25.43
2018-05-09T21:17:56.828Z,25.14
2018-05-09T21:20:25.090Z,25.15
2018-05-09T21:22:53.386Z,25.18
2018-05-09T21:25:21.690Z,25.23
2018-05-09T21:27:50.092Z,25.23
2018-05-09T21:30:18.402Z,25.21
2018-05-09T21:32:46.643Z,25.17
2018-05-09T21:35:14.899Z,25.13
2018-05-09T21:37:43.253Z,25.10
2018-05-09T21:40:11.497Z,25.07
2018-05-09T21:42:39.741Z,25.05
2018-05-09T21:45:08.149Z,24.97
2018-05-09T21:47:36.484Z,24.91
2018-05-09T21:50:04.832Z,24.89
2018-05-09T21:52:33.188Z,24.82
2018-05-09T21:55:01.495Z,24.80
2018-05-09T21:57:30.247Z,24.77
2018-05-09T21:59:59.529Z,24.70
2018-05-09T22:02:28.910Z,24.59
2018-05-09T22:04:57.231Z,24.43
2018-05-09T22:07:25.509Z,24.49
2018-05-09T22:09:53.812Z,24.43
2018-05-09T22:12:22.148Z,24.26
2018-05-09T22:14:50.446Z,24.32
2018-05-09T22:17:18.774Z,24.31
2018-05-09T22:19:47.060Z,23.30
2018-05-09T22:22:15.333Z,22.27
2018-05-09T22:24:43.762Z,21.65
2018-05-09T22:27:12.068Z,21.32
2018-05-09T22:29:40.574Z,20.96
2018-05-09T22:32:08.875Z,20.87
2018-05-09T22:34:37.241Z,20.76
2018-05-09T22:37:05.575Z,20.70
2018-05-09T22:39:33.819Z,20.45
2018-05-09T22:42:02.241Z,20.44
2018-05-09T22:44:30.575Z,20.13
2018-05-09T22:46:58.912Z,20.09
2018-05-09T22:49:27.322Z,20.14
2018-05-09T22:51:55.642Z,19.93
2018-05-09T22:54:24.200Z,19.89
2018-05-09T22:56:52.482Z,19.86
2018-05-09T22:59:20.756Z,19.84
2018-05-09T23:01:49.031Z,19.74
2018-05-09T23:04:17.320Z,19.91
2018-05-09T23:06:46.744Z,19.80
2018-05-09T23:09:15.026Z,19.63
2018-05-09T23:11:43.303Z,19.50
2018-05-09T23:14:11.629Z,19.53
2018-05-09T23:16:39.885Z,19.57
2018-05-09T23:19:09.085Z,19.56
2018-05-09T23:21:38.671Z,19.44
2018-05-09T23:24:06.971Z,19.36
2018-05-09T23:26:35.301Z,19.19
2018-05-09T23:29:03.634Z,19.29
2018-05-09T23:31:31.905Z,19.25
2018-05-09T23:34:00.524Z,19.03
2018-05-09T23:36:28.765Z,18.98
2018-05-09T23:38:57.053Z,18.95
2018-05-09T23:41:25.332Z,19.12
2018-05-09T23:43:53.666Z,19.23
2018-05-09T23:46:22.003Z,19.17
2018-05-09T23:48:50.301Z,19.13
2018-05-09T23:51:18.578Z,19.01
2018-05-09T23:53:46.892Z,18.95
2018-05-09T23:56:15.169Z,18.94
2018-05-09T23:58:43.455Z,18.90
